createdAt,value
2018-03-28T00:01:23.189Z,3.90
2018-03-28T00:03:50.301Z,3.90
2018-03-28T00:06:17.197Z,3.80
2018-03-28T00:08:43.787Z,3.80
2018-03-28T00:11:10.729Z,3.70
2018-03-28T00:13:37.549Z,3.80
2018-03-28T00:16:04.485Z,3.70
2018-03-28T00:20:59.939Z,3.70
2018-03-28T00:23:26.484Z,3.70
2018-03-28T00:25:54.092Z,3.40
2018-03-28T00:28:20.839Z,3.60
2018-03-28T00:30:47.283Z,3.60
2018-03-28T00:33:15.252Z,3.60
2018-03-28T00:35:41.745Z,3.60
2018-03-28T00:38:09.080Z,3.50
2018-03-28T00:40:36.549Z,3.50
2018-03-28T00:43:03.769Z,3.60
2018-03-28T00:45:31.182Z,3.60
2018-03-28T00:47:59.713Z,3.60
2018-03-28T00:50:26.689Z,3.60
2018-03-28T00:52:53.077Z,3.70
2018-03-28T00:55:21.368Z,3.60
2018-03-28T00:57:47.726Z,3.60
2018-03-28T01:00:14.183Z,3.50
2018-03-28T01:02:40.892Z,3.50
2018-03-28T01:05:08.108Z,3.60
2018-03-28T01:07:37.778Z,3.60
2018-03-28T01:10:04.288Z,3.50
2018-03-28T01:15:00.340Z,3.40
2018-03-28T01:20:10.823Z,3.40
2018-03-28T01:22:37.277Z,3.40
2018-03-28T01:25:03.772Z,3.40
2018-03-28T01:34:56.491Z,3.40
2018-03-28T01:37:24.949Z,3.30
2018-03-28T01:39:52.174Z,3.30
2018-03-28T01:42:19.049Z,3.30
2018-03-28T01:44:45.992Z,3.20
2018-03-28T01:47:13.339Z,2.70
2018-03-28T01:49:41.104Z,3.00
2018-03-28T01:52:08.051Z,3.00
2018-03-28T01:54:34.685Z,3.10
2018-03-28T01:59:29.346Z,3.10
2018-03-28T02:01:56.594Z,3.10
2018-03-28T02:04:24.256Z,3.00
2018-03-28T02:06:50.763Z,3.10
2018-03-28T02:09:17.481Z,3.10
2018-03-28T02:14:12.123Z,3.30
2018-03-28T02:16:39.028Z,3.30
2018-03-28T02:19:06.085Z,2.80
2018-03-28T02:21:34.361Z,3.20
2018-03-28T02:24:01.022Z,3.10
2018-03-28T02:26:27.558Z,3.10
2018-03-28T02:28:53.972Z,3.10
2018-03-28T02:31:20.490Z,3.10
2018-03-28T02:33:47.531Z,3.10
2018-03-28T02:36:14.001Z,3.00
2018-03-28T02:38:41.597Z,3.00
2018-03-28T02:41:08.916Z,3.00
2018-03-28T02:43:35.415Z,3.00
2018-03-28T02:46:03.565Z,3.00
2018-03-28T02:48:31.495Z,3.00
2018-03-28T02:53:26.476Z,2.90
2018-03-28T02:55:53.338Z,2.90
2018-03-28T02:58:19.937Z,2.90
2018-03-28T03:00:46.717Z,2.90
2018-03-28T03:03:13.239Z,2.90
2018-03-28T03:05:40.479Z,2.80
2018-03-28T03:08:07.098Z,2.80
2018-03-28T03:15:30.108Z,2.80
2018-03-28T03:17:56.565Z,2.80
2018-03-28T03:20:23.816Z,2.80
2018-03-28T03:22:51.968Z,2.70
2018-03-28T03:27:46.792Z,2.90
2018-03-28T03:30:13.675Z,2.80
2018-03-28T03:32:40.333Z,2.80
2018-03-28T03:35:07.015Z,2.80
2018-03-28T03:37:33.788Z,2.90
2018-03-28T03:40:01.920Z,2.60
2018-03-28T03:42:28.392Z,4.50
2018-03-28T03:44:55.382Z,2.00
2018-03-28T03:47:21.877Z,2.80
2018-03-28T03:49:49.076Z,2.80
2018-03-28T03:52:15.445Z,2.60
2018-03-28T03:54:41.913Z,2.80
2018-03-28T03:57:08.408Z,2.80
2018-03-28T03:59:35.604Z,2.70
2018-03-28T04:02:02.798Z,2.70
2018-03-28T04:04:29.950Z,2.70
2018-03-28T04:06:56.388Z,2.30
2018-03-28T04:09:22.912Z,2.60
2018-03-28T04:11:49.332Z,2.60
2018-03-28T04:14:16.278Z,2.70
2018-03-28T04:16:43.088Z,2.60
2018-03-28T04:19:09.595Z,2.60
2018-03-28T04:26:33.967Z,2.60
2018-03-28T04:29:00.609Z,2.60
2018-03-28T04:33:56.729Z,2.50
2018-03-28T04:36:23.856Z,2.60
2018-03-28T04:38:50.272Z,2.50
2018-03-28T04:41:17.509Z,2.50
2018-03-28T04:43:44.464Z,2.60
2018-03-28T04:46:11.605Z,2.40
2018-03-28T04:48:38.361Z,2.50
2018-03-28T04:56:02.482Z,2.50
2018-03-28T04:58:29.144Z,2.40
2018-03-28T05:00:55.608Z,2.60
2018-03-28T05:03:22.177Z,2.50
2018-03-28T05:05:49.442Z,2.50
2018-03-28T05:08:17.306Z,2.50
2018-03-28T05:10:44.722Z,2.50
2018-03-28T05:13:11.434Z,2.50
2018-03-28T05:15:39.151Z,2.60
2018-03-28T05:18:05.866Z,2.50
2018-03-28T05:20:32.304Z,2.50
2018-03-28T05:22:59.097Z,2.60
2018-03-28T05:25:25.504Z,2.60
2018-03-28T05:27:53.985Z,2.60
2018-03-28T05:30:21.610Z,2.60
2018-03-28T05:32:48.442Z,2.40
2018-03-28T05:35:16.539Z,2.70
2018-03-28T05:37:43.346Z,3.00
2018-03-28T05:40:10.512Z,2.70
2018-03-28T05:42:38.182Z,2.60
2018-03-28T05:47:34.761Z,2.70
2018-03-28T05:50:01.877Z,2.60
2018-03-28T05:52:28.370Z,2.70
2018-03-28T05:54:55.512Z,2.80
2018-03-28T05:57:22.665Z,2.80
2018-03-28T05:59:49.294Z,2.80
2018-03-28T06:02:17.322Z,2.80
2018-03-28T06:07:20.846Z,2.70
2018-03-28T06:09:47.273Z,2.70
2018-03-28T06:12:13.774Z,2.80
2018-03-28T06:14:40.491Z,2.70
2018-03-28T06:17:06.962Z,2.70
2018-03-28T06:19:33.503Z,2.80
2018-03-28T06:22:01.014Z,2.80
2018-03-28T06:24:28.649Z,2.80
2018-03-28T06:26:56.607Z,2.90
2018-03-28T06:29:24.095Z,2.90
2018-03-28T06:31:50.730Z,2.90
2018-03-28T06:36:45.284Z,3.00
2018-03-28T06:39:12.290Z,3.00
2018-03-28T06:41:40.330Z,3.00
2018-03-28T06:44:07.174Z,3.60
2018-03-28T06:46:34.910Z,3.20
2018-03-28T06:49:01.332Z,3.10
2018-03-28T06:51:28.820Z,3.20
2018-03-28T06:53:57.077Z,3.20
2018-03-28T06:56:24.025Z,3.30
2018-03-28T06:58:52.172Z,3.40
2018-03-28T07:01:18.712Z,3.30
2018-03-28T07:03:46.152Z,3.30
2018-03-28T07:08:40.848Z,3.10
2018-03-28T07:11:08.475Z,3.50
2018-03-28T07:13:36.398Z,3.60
2018-03-28T07:16:04.351Z,3.60
2018-03-28T07:18:31.129Z,3.50
2018-03-28T07:20:57.977Z,3.70
2018-03-28T07:23:25.730Z,3.70
2018-03-28T07:25:52.177Z,4.00
2018-03-28T07:28:18.922Z,3.80
2018-03-28T07:33:14.539Z,4.00
2018-03-28T07:35:41.873Z,4.10
2018-03-28T07:38:09.820Z,4.20
2018-03-28T07:40:36.610Z,4.30
2018-03-28T07:43:04.296Z,4.40
2018-03-28T07:45:30.962Z,4.40
2018-03-28T07:48:00.930Z,4.50
2018-03-28T07:52:57.040Z,4.90
2018-03-28T07:55:23.868Z,5.00
2018-03-28T07:57:51.129Z,5.00
2018-03-28T08:00:19.237Z,4.90
2018-03-28T08:02:47.715Z,4.70
2018-03-28T08:05:14.253Z,4.60
2018-03-28T08:10:10.084Z,4.50
2018-03-28T08:15:05.473Z,4.30
2018-03-28T08:17:32.597Z,4.30
2018-03-28T08:22:27.813Z,4.30
2018-03-28T08:29:55.399Z,4.50
2018-03-28T08:39:52.888Z,4.90
2018-03-28T08:42:19.722Z,5.00
2018-03-28T08:49:45.624Z,5.10
2018-03-28T08:52:13.451Z,5.20
2018-03-28T08:57:08.776Z,5.40
2018-03-28T09:02:03.719Z,4.80
2018-03-28T09:06:59.158Z,4.90
2018-03-28T09:09:25.811Z,4.80
2018-03-28T09:11:52.813Z,4.70
2018-03-28T09:19:20.764Z,5.10
2018-03-28T09:21:48.005Z,5.40
2018-03-28T09:29:11.416Z,5.80
2018-03-28T09:39:03.638Z,6.90
2018-03-28T09:41:30.436Z,6.30
2018-03-28T09:43:59.569Z,6.30
2018-03-28T09:46:26.612Z,5.30
2018-03-28T09:48:54.577Z,6.40
2018-03-28T09:56:18.376Z,6.50
2018-03-28T09:58:48.120Z,6.70
2018-03-28T10:03:50.305Z,6.50
2018-03-28T10:06:18.633Z,6.40
2018-03-28T10:08:46.443Z,6.20
2018-03-28T10:11:13.664Z,6.00
2018-03-28T10:13:42.793Z,6.10
2018-03-28T10:16:10.043Z,6.20
2018-03-28T10:18:36.433Z,6.30
2018-03-28T10:31:03.339Z,5.90
2018-03-28T10:33:31.114Z,5.80
2018-03-28T10:38:27.506Z,5.80
2018-03-28T10:40:54.434Z,6.00
2018-03-28T10:43:20.863Z,5.80
2018-03-28T10:45:47.723Z,6.10
2018-03-28T10:50:42.828Z,5.90
2018-03-28T10:53:09.625Z,6.00
2018-03-28T10:55:36.222Z,6.10
2018-03-28T11:03:00.023Z,6.10
2018-03-28T11:05:26.544Z,6.10
2018-03-28T11:07:53.393Z,6.20
2018-03-28T11:10:21.461Z,6.30
2018-03-28T11:15:16.515Z,6.50
2018-03-28T11:17:43.114Z,6.20
2018-03-28T11:20:11.388Z,6.50
2018-03-28T11:22:41.853Z,6.50
2018-03-28T11:25:11.522Z,6.80
2018-03-28T11:27:39.360Z,6.90
2018-03-28T11:32:34.503Z,6.90
2018-03-28T11:42:28.015Z,6.60
2018-03-28T11:44:54.792Z,6.80
2018-03-28T11:47:21.806Z,6.80
2018-03-28T11:52:18.386Z,6.50
2018-03-28T11:54:45.017Z,6.40
2018-03-28T11:57:13.613Z,6.20
2018-03-28T12:02:09.106Z,6.40
2018-03-28T12:04:36.526Z,5.70
2018-03-28T12:21:59.109Z,5.70
2018-03-28T12:24:26.854Z,5.80
2018-03-28T12:29:21.654Z,5.90
2018-03-28T12:31:48.934Z,6.00
2018-03-28T12:41:42.612Z,5.80
2018-03-28T12:49:09.265Z,5.80
2018-03-28T12:54:11.011Z,6.20
2018-03-28T12:56:38.703Z,6.30
2018-03-28T13:09:03.493Z,7.20
2018-03-28T13:11:33.574Z,7.40
2018-03-28T13:14:02.123Z,7.40
2018-03-28T13:16:29.726Z,7.00
2018-03-28T13:18:59.975Z,7.30
2018-03-28T13:21:27.470Z,7.30
2018-03-28T13:23:55.858Z,7.00
2018-03-28T13:26:23.568Z,7.20
2018-03-28T13:28:52.480Z,6.90
2018-03-28T13:38:52.757Z,6.30
2018-03-28T13:41:20.530Z,6.30
2018-03-28T13:48:50.119Z,6.70
2018-03-28T13:53:51.814Z,6.60
2018-03-28T13:58:54.232Z,6.80
2018-03-28T14:01:23.132Z,7.00
2018-03-28T14:03:51.419Z,7.20
2018-03-28T14:06:19.859Z,7.20
2018-03-28T14:08:51.105Z,7.10
2018-03-28T14:13:50.818Z,7.10
2018-03-28T14:16:19.840Z,7.10
2018-03-28T14:21:17.917Z,7.20
2018-03-28T14:23:48.134Z,7.00
2018-03-28T14:28:45.847Z,7.20
2018-03-28T14:31:13.637Z,7.20
2018-03-28T14:33:41.213Z,6.90
2018-03-28T14:43:35.712Z,6.70
2018-03-28T14:48:31.358Z,7.50
2018-03-28T14:53:29.181Z,7.50
2018-03-28T14:55:59.355Z,7.30
2018-03-28T15:03:27.107Z,6.80
2018-03-28T15:08:30.016Z,6.50
2018-03-28T15:13:26.736Z,6.10
2018-03-28T15:18:24.194Z,6.10
2018-03-28T15:33:18.845Z,7.50
2018-03-28T15:35:51.946Z,7.50
2018-03-28T15:41:02.138Z,6.80
2018-03-28T15:46:04.747Z,6.30
2018-03-28T15:53:34.325Z,5.80
2018-03-28T16:01:25.260Z,5.00
2018-03-28T16:03:54.760Z,5.00
2018-03-28T16:06:21.785Z,5.00
2018-03-28T16:11:19.950Z,4.80
2018-03-28T16:19:12.042Z,4.70
2018-03-28T16:29:07.296Z,4.50
2018-03-28T16:34:04.119Z,3.90
2018-03-28T16:46:31.138Z,4.10
2018-03-28T16:48:59.536Z,4.00
2018-03-28T16:53:55.571Z,3.90
2018-03-28T16:56:23.094Z,4.10
2018-03-28T16:58:49.994Z,3.60
2018-03-28T17:01:17.958Z,3.80
2018-03-28T17:03:44.627Z,3.90
2018-03-28T17:08:47.291Z,3.50
2018-03-28T17:11:16.464Z,3.80
2018-03-28T17:16:12.872Z,3.80
2018-03-28T17:18:39.720Z,4.10
2018-03-28T17:21:06.315Z,3.70
2018-03-28T17:23:34.433Z,3.80
2018-03-28T17:33:27.975Z,3.50
2018-03-28T17:35:56.748Z,3.40
2018-03-28T17:40:56.696Z,3.20
2018-03-28T17:43:36.659Z,3.20
2018-03-28T17:48:33.340Z,3.20
2018-03-28T17:53:28.624Z,2.70
2018-03-28T17:55:56.884Z,3.00
2018-03-28T17:58:23.812Z,3.00
2018-03-28T18:00:50.899Z,2.90
2018-03-28T18:03:17.536Z,3.00
2018-03-28T18:05:44.909Z,3.00
2018-03-28T18:08:12.727Z,3.10
2018-03-28T18:10:44.545Z,3.00
2018-03-28T18:15:45.732Z,3.00
2018-03-28T18:18:14.781Z,3.10
2018-03-28T18:20:41.512Z,3.20
2018-03-28T18:23:09.576Z,3.10
2018-03-28T18:28:07.197Z,3.20
2018-03-28T18:30:34.233Z,3.40
2018-03-28T18:35:29.481Z,3.20
2018-03-28T18:37:56.490Z,3.20
2018-03-28T18:40:24.500Z,3.20
2018-03-28T18:45:32.424Z,3.30
2018-03-28T18:47:59.516Z,3.20
2018-03-28T18:50:26.344Z,3.20
2018-03-28T18:52:52.995Z,3.20
2018-03-28T18:55:22.232Z,3.20
2018-03-28T18:57:49.545Z,3.70
2018-03-28T19:00:16.483Z,3.30
2018-03-28T19:02:43.902Z,3.30
2018-03-28T19:05:11.132Z,3.20
2018-03-28T19:07:40.122Z,3.20
2018-03-28T19:10:08.644Z,3.00
2018-03-28T19:12:35.885Z,4.50
2018-03-28T19:15:03.753Z,3.20
2018-03-28T19:17:34.233Z,3.20
2018-03-28T19:20:03.358Z,3.20
2018-03-28T19:22:31.924Z,3.20
2018-03-28T19:24:59.530Z,3.20
2018-03-28T19:27:26.400Z,3.20
2018-03-28T19:29:54.024Z,3.20
2018-03-28T19:32:21.894Z,3.10
2018-03-28T19:34:48.350Z,3.10
2018-03-28T19:37:16.100Z,3.10
2018-03-28T19:39:43.037Z,3.00
2018-03-28T19:42:10.605Z,3.10
2018-03-28T19:44:37.147Z,3.10
2018-03-28T19:47:03.615Z,3.00
2018-03-28T19:49:30.495Z,3.10
2018-03-28T19:59:28.844Z,2.60
2018-03-28T20:01:56.012Z,2.40
2018-03-28T20:04:23.175Z,2.30
2018-03-28T20:06:50.046Z,2.20
2018-03-28T20:09:16.888Z,1.90
2018-03-28T20:14:12.417Z,1.90
2018-03-28T20:16:38.874Z,1.90
2018-03-28T20:19:05.342Z,1.80
2018-03-28T20:21:32.460Z,1.80
2018-03-28T20:23:58.901Z,1.70
2018-03-28T20:26:25.359Z,1.60
2018-03-28T20:28:51.793Z,1.60
2018-03-28T20:31:18.890Z,1.50
2018-03-28T20:33:46.414Z,1.40
2018-03-28T20:36:13.632Z,1.40
2018-03-28T20:38:40.140Z,1.20
2018-03-28T20:41:06.806Z,1.20
2018-03-28T20:43:33.529Z,1.10
2018-03-28T20:45:59.981Z,1.10
2018-03-28T20:50:54.692Z,1.00
2018-03-28T20:53:21.136Z,1.00
2018-03-28T20:55:47.527Z,0.90
2018-03-28T20:58:13.954Z,0.90
2018-03-28T21:00:40.331Z,0.80
2018-03-28T21:03:07.840Z,0.90
2018-03-28T21:05:34.232Z,0.90
2018-03-28T21:08:00.709Z,0.80
2018-03-28T21:10:27.833Z,0.80
2018-03-28T21:12:54.244Z,0.80
2018-03-28T21:15:20.769Z,0.80
2018-03-28T21:17:47.293Z,0.70
2018-03-28T21:20:13.732Z,0.80
2018-03-28T21:22:40.200Z,0.70
2018-03-28T21:25:06.938Z,0.70
2018-03-28T21:27:33.901Z,0.60
2018-03-28T21:30:00.314Z,0.70
2018-03-28T21:32:26.756Z,0.60
2018-03-28T21:34:54.238Z,0.70
2018-03-28T21:37:21.258Z,0.60
2018-03-28T21:39:48.540Z,0.70
2018-03-28T21:42:16.608Z,0.70
2018-03-28T21:44:43.340Z,0.70
2018-03-28T21:47:10.360Z,0.60
2018-03-28T21:49:36.806Z,0.80
2018-03-28T21:52:04.972Z,0.60
2018-03-28T21:54:31.417Z,0.70
2018-03-28T21:56:58.244Z,0.70
2018-03-28T21:59:24.690Z,0.70
2018-03-28T22:01:52.683Z,0.60
2018-03-28T22:04:19.588Z,0.60
2018-03-28T22:06:46.066Z,0.60
2018-03-28T22:09:14.000Z,0.50
2018-03-28T22:11:41.921Z,0.60
2018-03-28T22:14:09.283Z,0.40
2018-03-28T22:16:36.904Z,0.60
2018-03-28T22:19:03.865Z,0.60
2018-03-28T22:21:31.292Z,0.50
2018-03-28T22:23:57.702Z,0.60
2018-03-28T22:26:24.178Z,0.40
2018-03-28T22:28:51.286Z,0.80
2018-03-28T22:31:18.155Z,0.60
2018-03-28T22:36:14.979Z,0.00
2018-03-28T22:38:41.469Z,0.60
2018-03-28T22:41:09.405Z,0.50
2018-03-28T22:43:36.268Z,0.60
2018-03-28T22:46:03.265Z,0.20
2018-03-28T22:48:29.783Z,0.60
2018-03-28T22:50:56.373Z,0.50
2018-03-28T22:53:23.963Z,0.60
2018-03-28T22:55:51.111Z,0.60
2018-03-28T22:58:18.880Z,0.50
2018-03-28T23:00:45.454Z,0.60
2018-03-28T23:03:12.629Z,0.50
2018-03-28T23:05:40.288Z,0.50
2018-03-28T23:08:07.057Z,0.60
2018-03-28T23:10:33.472Z,0.50
2018-03-28T23:13:00.864Z,0.50
2018-03-28T23:15:28.444Z,0.50
2018-03-28T23:17:54.948Z,0.50
2018-03-28T23:20:21.698Z,0.20
2018-03-28T23:22:48.153Z,0.40
2018-03-28T23:25:15.485Z,0.50
2018-03-28T23:27:42.313Z,0.30
2018-03-28T23:30:08.721Z,0.60
2018-03-28T23:32:35.146Z,0.60
2018-03-28T23:35:02.299Z,0.50
2018-03-28T23:37:28.826Z,0.50
2018-03-28T23:39:55.320Z,0.50
2018-03-28T23:42:22.003Z,0.40
2018-03-28T23:47:21.036Z,0.40
2018-03-28T23:49:47.898Z,0.80
2018-03-28T23:52:15.298Z,0.30
2018-03-28T23:54:42.845Z,0.50
2018-03-28T23:57:09.316Z,0.50
2018-03-28T23:59:35.665Z,0.50
